sensor_id;sensor_type;location;lat;lon;timestamp;temperature;humidity
10294;DHT22;5192;50.328;7.610;2022-12-18T00:01:27;-9.60;41.10
10294;DHT22;5192;50.328;7.610;2022-12-18T00:03:55;-9.70;40.40
10294;DHT22;5192;50.328;7.610;2022-12-18T00:06:27;-9.70;40.20
10294;DHT22;5192;50.328;7.610;2022-12-18T00:08:56;-9.70;40.80
10294;DHT22;5192;50.328;7.610;2022-12-18T00:11:29;-9.70;40.90
10294;DHT22;5192;50.328;7.610;2022-12-18T00:13:58;-9.70;40.90
10294;DHT22;5192;50.328;7.610;2022-12-18T00:16:26;-9.70;41.10
10294;DHT22;5192;50.328;7.610;2022-12-18T00:18:54;-9.70;41.10
10294;DHT22;5192;50.328;7.610;2022-12-18T00:21:22;-9.70;41.00
10294;DHT22;5192;50.328;7.610;2022-12-18T00:23:50;-9.70;40.60
10294;DHT22;5192;50.328;7.610;2022-12-18T00:26:23;-9.70;40.40
10294;DHT22;5192;50.328;7.610;2022-12-18T00:28:51;-9.80;40.00
10294;DHT22;5192;50.328;7.610;2022-12-18T00:31:22;-9.80;40.30
10294;DHT22;5192;50.328;7.610;2022-12-18T00:33:49;-9.80;40.20
10294;DHT22;5192;50.328;7.610;2022-12-18T00:36:18;-9.80;39.60
10294;DHT22;5192;50.328;7.610;2022-12-18T00:38:48;-9.90;38.90
10294;DHT22;5192;50.328;7.610;2022-12-18T00:41:20;-9.90;38.60
10294;DHT22;5192;50.328;7.610;2022-12-18T00:44:07;-10.00;38.10
10294;DHT22;5192;50.328;7.610;2022-12-18T00:46:37;-10.00;38.60
10294;DHT22;5192;50.328;7.610;2022-12-18T00:49:04;-9.90;39.10
10294;DHT22;5192;50.328;7.610;2022-12-18T00:51:29;-10.00;39.10
10294;DHT22;5192;50.328;7.610;2022-12-18T00:53:55;-10.00;39.10
10294;DHT22;5192;50.328;7.610;2022-12-18T00:56:22;-10.00;39.30
10294;DHT22;5192;50.328;7.610;2022-12-18T00:58:50;-10.00;39.20
10294;DHT22;5192;50.328;7.610;2022-12-18T01:01:18;-10.00;38.80
10294;DHT22;5192;50.328;7.610;2022-12-18T01:03:45;-10.10;38.10
10294;DHT22;5192;50.328;7.610;2022-12-18T01:06:14;-10.20;37.50
10294;DHT22;5192;50.328;7.610;2022-12-18T01:08:41;-10.20;37.40
10294;DHT22;5192;50.328;7.610;2022-12-18T01:11:15;-10.20;37.50
10294;DHT22;5192;50.328;7.610;2022-12-18T01:13:43;-10.20;37.70
10294;DHT22;5192;50.328;7.610;2022-12-18T01:16:14;-10.20;38.00
10294;DHT22;5192;50.328;7.610;2022-12-18T01:18:42;-10.20;38.20
10294;DHT22;5192;50.328;7.610;2022-12-18T01:21:11;-10.20;38.10
10294;DHT22;5192;50.328;7.610;2022-12-18T01:23:37;-10.20;37.60
10294;DHT22;5192;50.328;7.610;2022-12-18T01:26:14;-10.30;37.30
10294;DHT22;5192;50.328;7.610;2022-12-18T01:28:41;-10.30;37.30
10294;DHT22;5192;50.328;7.610;2022-12-18T01:33:42;-10.40;36.50
10294;DHT22;5192;50.328;7.610;2022-12-18T01:39:08;-10.40;35.90
10294;DHT22;5192;50.328;7.610;2022-12-18T01:41:37;-10.40;36.10
10294;DHT22;5192;50.328;7.610;2022-12-18T01:47:36;-10.50;36.30
10294;DHT22;5192;50.328;7.610;2022-12-18T01:52:47;-10.50;37.20
10294;DHT22;5192;50.328;7.610;2022-12-18T01:55:17;-10.50;37.50
10294;DHT22;5192;50.328;7.610;2022-12-18T01:57:44;-10.50;37.00
10294;DHT22;5192;50.328;7.610;2022-12-18T02:00:18;-10.50;36.90
10294;DHT22;5192;50.328;7.610;2022-12-18T02:02:47;-10.40;36.80
10294;DHT22;5192;50.328;7.610;2022-12-18T02:05:29;-10.50;37.00
10294;DHT22;5192;50.328;7.610;2022-12-18T02:08:20;-10.60;36.80
10294;DHT22;5192;50.328;7.610;2022-12-18T02:11:10;-10.60;36.60
10294;DHT22;5192;50.328;7.610;2022-12-18T02:14:10;-10.60;36.60
10294;DHT22;5192;50.328;7.610;2022-12-18T02:25:29;-10.80;36.80
10294;DHT22;5192;50.328;7.610;2022-12-18T02:28:02;-10.70;36.90
10294;DHT22;5192;50.328;7.610;2022-12-18T02:30:35;-10.70;36.90
10294;DHT22;5192;50.328;7.610;2022-12-18T02:33:06;-10.70;37.20
10294;DHT22;5192;50.328;7.610;2022-12-18T02:35:36;-10.70;37.10
10294;DHT22;5192;50.328;7.610;2022-12-18T02:38:04;-10.70;37.20
10294;DHT22;5192;50.328;7.610;2022-12-18T02:40:33;-10.70;37.50
10294;DHT22;5192;50.328;7.610;2022-12-18T02:43:13;-10.70;37.40
10294;DHT22;5192;50.328;7.610;2022-12-18T02:45:56;-10.60;37.40
10294;DHT22;5192;50.328;7.610;2022-12-18T02:48:24;-10.70;37.20
10294;DHT22;5192;50.328;7.610;2022-12-18T02:51:18;-10.70;37.00
10294;DHT22;5192;50.328;7.610;2022-12-18T02:54:10;-10.90;36.60
10294;DHT22;5192;50.328;7.610;2022-12-18T02:56:48;-10.80;37.30
10294;DHT22;5192;50.328;7.610;2022-12-18T02:59:47;-10.80;37.90
10294;DHT22;5192;50.328;7.610;2022-12-18T03:02:36;-10.80;37.80
10294;DHT22;5192;50.328;7.610;2022-12-18T03:05:15;-10.80;37.70
10294;DHT22;5192;50.328;7.610;2022-12-18T03:10:29;-10.80;37.30
10294;DHT22;5192;50.328;7.610;2022-12-18T03:13:08;-10.80;36.80
10294;DHT22;5192;50.328;7.610;2022-12-18T03:15:40;-10.80;36.90
10294;DHT22;5192;50.328;7.610;2022-12-18T03:18:17;-10.80;37.10
10294;DHT22;5192;50.328;7.610;2022-12-18T03:20:47;-10.80;37.10
10294;DHT22;5192;50.328;7.610;2022-12-18T03:23:22;-10.80;37.10
10294;DHT22;5192;50.328;7.610;2022-12-18T03:25:53;-10.80;37.10
10294;DHT22;5192;50.328;7.610;2022-12-18T03:28:21;-10.70;37.40
10294;DHT22;5192;50.328;7.610;2022-12-18T03:30:56;-10.70;37.70
10294;DHT22;5192;50.328;7.610;2022-12-18T03:33:40;-10.80;37.30
10294;DHT22;5192;50.328;7.610;2022-12-18T03:36:07;-10.90;37.50
10294;DHT22;5192;50.328;7.610;2022-12-18T03:38:34;-11.00;37.80
10294;DHT22;5192;50.328;7.610;2022-12-18T03:44:11;-11.10;38.70
10294;DHT22;5192;50.328;7.610;2022-12-18T03:52:30;-11.10;39.70
10294;DHT22;5192;50.328;7.610;2022-12-18T03:54:59;-11.10;38.30
10294;DHT22;5192;50.328;7.610;2022-12-18T03:57:31;-11.10;38.20
10294;DHT22;5192;50.328;7.610;2022-12-18T04:00:06;-11.00;38.40
10294;DHT22;5192;50.328;7.610;2022-12-18T04:02:38;-11.00;38.30
10294;DHT22;5192;50.328;7.610;2022-12-18T04:05:06;-10.90;38.70
10294;DHT22;5192;50.328;7.610;2022-12-18T04:07:35;-11.00;38.80
10294;DHT22;5192;50.328;7.610;2022-12-18T04:10:02;-11.10;38.30
10294;DHT22;5192;50.328;7.610;2022-12-18T04:12:30;-11.10;38.40
10294;DHT22;5192;50.328;7.610;2022-12-18T04:14:57;-11.10;38.20
10294;DHT22;5192;50.328;7.610;2022-12-18T04:17:24;-11.10;39.60
10294;DHT22;5192;50.328;7.610;2022-12-18T04:19:51;-11.10;39.70
10294;DHT22;5192;50.328;7.610;2022-12-18T04:22:18;-11.10;39.80
10294;DHT22;5192;50.328;7.610;2022-12-18T04:24:44;-11.20;39.50
10294;DHT22;5192;50.328;7.610;2022-12-18T04:27:10;-11.20;40.00
10294;DHT22;5192;50.328;7.610;2022-12-18T04:29:36;-11.20;39.80
10294;DHT22;5192;50.328;7.610;2022-12-18T04:32:01;-11.10;39.90
10294;DHT22;5192;50.328;7.610;2022-12-18T04:34:28;-11.20;39.50
10294;DHT22;5192;50.328;7.610;2022-12-18T04:36:56;-11.10;39.40
10294;DHT22;5192;50.328;7.610;2022-12-18T04:39:24;-11.10;39.20
10294;DHT22;5192;50.328;7.610;2022-12-18T04:41:52;-11.10;38.90
10294;DHT22;5192;50.328;7.610;2022-12-18T04:44:18;-11.10;38.80
10294;DHT22;5192;50.328;7.610;2022-12-18T04:46:44;-11.10;38.70
10294;DHT22;5192;50.328;7.610;2022-12-18T04:49:12;-11.10;38.50
10294;DHT22;5192;50.328;7.610;2022-12-18T04:51:40;-11.00;38.60
10294;DHT22;5192;50.328;7.610;2022-12-18T04:54:07;-10.90;39.10
10294;DHT22;5192;50.328;7.610;2022-12-18T04:56:34;-11.00;38.90
10294;DHT22;5192;50.328;7.610;2022-12-18T04:59:01;-11.00;38.80
10294;DHT22;5192;50.328;7.610;2022-12-18T05:01:29;-10.90;38.70
10294;DHT22;5192;50.328;7.610;2022-12-18T05:03:55;-10.80;39.60
10294;DHT22;5192;50.328;7.610;2022-12-18T05:06:23;-10.80;39.90
10294;DHT22;5192;50.328;7.610;2022-12-18T05:08:50;-10.70;40.20
10294;DHT22;5192;50.328;7.610;2022-12-18T05:11:18;-10.70;40.70
10294;DHT22;5192;50.328;7.610;2022-12-18T05:13:45;-10.70;40.70
10294;DHT22;5192;50.328;7.610;2022-12-18T05:16:13;-10.60;40.40
10294;DHT22;5192;50.328;7.610;2022-12-18T05:18:41;-10.70;40.50
10294;DHT22;5192;50.328;7.610;2022-12-18T05:21:10;-10.70;40.40
10294;DHT22;5192;50.328;7.610;2022-12-18T05:23:38;-10.60;40.20
10294;DHT22;5192;50.328;7.610;2022-12-18T05:26:06;-10.70;39.70
10294;DHT22;5192;50.328;7.610;2022-12-18T05:28:37;-10.70;41.00
10294;DHT22;5192;50.328;7.610;2022-12-18T05:31:05;-10.60;41.40
10294;DHT22;5192;50.328;7.610;2022-12-18T05:33:34;-10.70;41.20
10294;DHT22;5192;50.328;7.610;2022-12-18T05:36:05;-10.70;40.80
10294;DHT22;5192;50.328;7.610;2022-12-18T05:38:38;-10.70;40.60
10294;DHT22;5192;50.328;7.610;2022-12-18T05:41:06;-10.70;40.10
10294;DHT22;5192;50.328;7.610;2022-12-18T05:43:40;-10.70;39.80
10294;DHT22;5192;50.328;7.610;2022-12-18T05:46:15;-10.80;39.30
10294;DHT22;5192;50.328;7.610;2022-12-18T05:48:42;-10.80;39.10
10294;DHT22;5192;50.328;7.610;2022-12-18T05:51:15;-10.90;39.10
10294;DHT22;5192;50.328;7.610;2022-12-18T05:53:42;-10.80;39.30
10294;DHT22;5192;50.328;7.610;2022-12-18T05:56:10;-10.80;39.20
10294;DHT22;5192;50.328;7.610;2022-12-18T05:58:36;-10.90;39.40
10294;DHT22;5192;50.328;7.610;2022-12-18T06:01:26;-10.90;39.10
10294;DHT22;5192;50.328;7.610;2022-12-18T06:03:53;-10.90;39.00
10294;DHT22;5192;50.328;7.610;2022-12-18T06:06:26;-11.00;38.60
10294;DHT22;5192;50.328;7.610;2022-12-18T06:08:54;-11.00;38.40
10294;DHT22;5192;50.328;7.610;2022-12-18T06:11:23;-11.00;38.20
10294;DHT22;5192;50.328;7.610;2022-12-18T06:13:53;-11.00;38.00
10294;DHT22;5192;50.328;7.610;2022-12-18T06:16:21;-11.00;38.20
10294;DHT22;5192;50.328;7.610;2022-12-18T06:18:49;-10.90;38.80
10294;DHT22;5192;50.328;7.610;2022-12-18T06:21:15;-11.00;38.00
10294;DHT22;5192;50.328;7.610;2022-12-18T06:23:42;-10.90;38.20
10294;DHT22;5192;50.328;7.610;2022-12-18T06:26:13;-10.90;38.10
10294;DHT22;5192;50.328;7.610;2022-12-18T06:28:41;-11.00;37.80
10294;DHT22;5192;50.328;7.610;2022-12-18T06:31:09;-10.90;37.80
10294;DHT22;5192;50.328;7.610;2022-12-18T06:33:37;-11.00;37.70
10294;DHT22;5192;50.328;7.610;2022-12-18T06:36:21;-11.00;37.90
10294;DHT22;5192;50.328;7.610;2022-12-18T06:38:48;-11.00;37.80
10294;DHT22;5192;50.328;7.610;2022-12-18T06:41:18;-11.00;38.00
10294;DHT22;5192;50.328;7.610;2022-12-18T06:43:46;-11.00;38.20
10294;DHT22;5192;50.328;7.610;2022-12-18T06:46:12;-11.00;38.10
10294;DHT22;5192;50.328;7.610;2022-12-18T06:48:38;-11.00;38.20
10294;DHT22;5192;50.328;7.610;2022-12-18T06:51:04;-11.10;37.80
10294;DHT22;5192;50.328;7.610;2022-12-18T06:53:32;-11.10;37.50
10294;DHT22;5192;50.328;7.610;2022-12-18T06:56:10;-11.20;37.20
10294;DHT22;5192;50.328;7.610;2022-12-18T06:58:38;-11.20;37.00
10294;DHT22;5192;50.328;7.610;2022-12-18T07:01:09;-11.20;37.00
10294;DHT22;5192;50.328;7.610;2022-12-18T07:03:38;-11.20;36.80
10294;DHT22;5192;50.328;7.610;2022-12-18T07:06:06;-11.30;36.60
10294;DHT22;5192;50.328;7.610;2022-12-18T07:08:38;-11.30;36.50
10294;DHT22;5192;50.328;7.610;2022-12-18T07:11:06;-11.40;36.50
10294;DHT22;5192;50.328;7.610;2022-12-18T07:13:33;-11.30;36.90
10294;DHT22;5192;50.328;7.610;2022-12-18T07:16:12;-11.30;36.90
10294;DHT22;5192;50.328;7.610;2022-12-18T07:18:41;-11.40;36.80
10294;DHT22;5192;50.328;7.610;2022-12-18T07:21:13;-11.30;37.00
10294;DHT22;5192;50.328;7.610;2022-12-18T07:23:41;-11.30;37.40
10294;DHT22;5192;50.328;7.610;2022-12-18T07:26:10;-11.30;37.40
10294;DHT22;5192;50.328;7.610;2022-12-18T07:28:38;-11.30;37.10
10294;DHT22;5192;50.328;7.610;2022-12-18T07:31:12;-11.30;36.90
10294;DHT22;5192;50.328;7.610;2022-12-18T07:33:40;-11.40;36.50
10294;DHT22;5192;50.328;7.610;2022-12-18T07:36:08;-11.40;36.60
10294;DHT22;5192;50.328;7.610;2022-12-18T07:38:36;-11.40;36.50
10294;DHT22;5192;50.328;7.610;2022-12-18T07:41:07;-11.40;36.30
10294;DHT22;5192;50.328;7.610;2022-12-18T07:43:34;-11.50;36.20
10294;DHT22;5192;50.328;7.610;2022-12-18T07:46:01;-11.50;36.00
10294;DHT22;5192;50.328;7.610;2022-12-18T07:48:29;-11.50;35.90
10294;DHT22;5192;50.328;7.610;2022-12-18T07:50:59;-11.40;36.10
10294;DHT22;5192;50.328;7.610;2022-12-18T07:53:29;-11.40;35.80
10294;DHT22;5192;50.328;7.610;2022-12-18T07:56:01;-11.40;35.70
10294;DHT22;5192;50.328;7.610;2022-12-18T07:58:34;-11.40;36.00
10294;DHT22;5192;50.328;7.610;2022-12-18T08:01:09;-11.40;35.60
10294;DHT22;5192;50.328;7.610;2022-12-18T08:03:38;-11.40;35.20
10294;DHT22;5192;50.328;7.610;2022-12-18T08:06:08;-11.50;34.90
10294;DHT22;5192;50.328;7.610;2022-12-18T08:08:36;-11.40;35.00
10294;DHT22;5192;50.328;7.610;2022-12-18T08:11:03;-11.40;35.20
10294;DHT22;5192;50.328;7.610;2022-12-18T08:13:30;-11.40;35.20
10294;DHT22;5192;50.328;7.610;2022-12-18T08:16:04;-11.30;35.40
10294;DHT22;5192;50.328;7.610;2022-12-18T08:18:46;-11.30;35.00
10294;DHT22;5192;50.328;7.610;2022-12-18T08:21:23;-11.20;34.90
10294;DHT22;5192;50.328;7.610;2022-12-18T08:23:53;-11.20;34.80
10294;DHT22;5192;50.328;7.610;2022-12-18T08:26:20;-11.30;34.00
10294;DHT22;5192;50.328;7.610;2022-12-18T08:28:47;-11.30;34.30
10294;DHT22;5192;50.328;7.610;2022-12-18T08:31:14;-11.20;34.80
10294;DHT22;5192;50.328;7.610;2022-12-18T08:33:41;-11.20;34.90
10294;DHT22;5192;50.328;7.610;2022-12-18T08:36:09;-11.20;34.80
10294;DHT22;5192;50.328;7.610;2022-12-18T08:38:37;-11.20;35.00
10294;DHT22;5192;50.328;7.610;2022-12-18T08:41:08;-11.10;35.40
10294;DHT22;5192;50.328;7.610;2022-12-18T08:43:34;-11.00;36.00
10294;DHT22;5192;50.328;7.610;2022-12-18T08:46:22;-11.00;36.90
10294;DHT22;5192;50.328;7.610;2022-12-18T08:48:54;-10.90;37.60
10294;DHT22;5192;50.328;7.610;2022-12-18T08:51:22;-10.90;38.10
10294;DHT22;5192;50.328;7.610;2022-12-18T08:53:47;-10.80;38.30
10294;DHT22;5192;50.328;7.610;2022-12-18T08:56:16;-10.70;38.70
10294;DHT22;5192;50.328;7.610;2022-12-18T08:58:43;-10.70;38.80
10294;DHT22;5192;50.328;7.610;2022-12-18T09:01:10;-10.60;38.90
10294;DHT22;5192;50.328;7.610;2022-12-18T09:03:38;-10.60;39.00
10294;DHT22;5192;50.328;7.610;2022-12-18T09:06:06;-10.50;39.20
10294;DHT22;5192;50.328;7.610;2022-12-18T09:08:36;-10.50;38.90
10294;DHT22;5192;50.328;7.610;2022-12-18T09:11:02;-10.40;38.90
10294;DHT22;5192;50.328;7.610;2022-12-18T09:13:29;-10.30;39.30
10294;DHT22;5192;50.328;7.610;2022-12-18T09:15:57;-10.20;39.40
10294;DHT22;5192;50.328;7.610;2022-12-18T09:18:25;-10.00;39.80
10294;DHT22;5192;50.328;7.610;2022-12-18T09:20:52;-9.90;40.20
10294;DHT22;5192;50.328;7.610;2022-12-18T09:23:20;-9.70;40.80
10294;DHT22;5192;50.328;7.610;2022-12-18T09:25:49;-9.60;41.00
10294;DHT22;5192;50.328;7.610;2022-12-18T09:28:18;-9.50;41.60
10294;DHT22;5192;50.328;7.610;2022-12-18T09:30:49;-9.30;41.90
10294;DHT22;5192;50.328;7.610;2022-12-18T09:33:16;-9.20;41.70
10294;DHT22;5192;50.328;7.610;2022-12-18T09:35:43;-9.00;41.20
10294;DHT22;5192;50.328;7.610;2022-12-18T09:38:16;-9.00;40.30
10294;DHT22;5192;50.328;7.610;2022-12-18T09:40:51;-9.00;39.90
10294;DHT22;5192;50.328;7.610;2022-12-18T09:46:34;-8.90;39.90
10294;DHT22;5192;50.328;7.610;2022-12-18T09:49:09;-8.80;40.30
10294;DHT22;5192;50.328;7.610;2022-12-18T09:51:59;-8.60;41.00
10294;DHT22;5192;50.328;7.610;2022-12-18T09:54:42;-8.50;41.80
10294;DHT22;5192;50.328;7.610;2022-12-18T09:57:19;-8.30;42.40
10294;DHT22;5192;50.328;7.610;2022-12-18T10:00:22;-8.10;42.70
10294;DHT22;5192;50.328;7.610;2022-12-18T10:02:51;-7.90;43.30
10294;DHT22;5192;50.328;7.610;2022-12-18T10:26:14;-6.30;41.20
10294;DHT22;5192;50.328;7.610;2022-12-18T10:28:43;-6.30;39.50
10294;DHT22;5192;50.328;7.610;2022-12-18T10:31:19;-6.30;39.40
10294;DHT22;5192;50.328;7.610;2022-12-18T10:33:46;-6.20;39.80
10294;DHT22;5192;50.328;7.610;2022-12-18T10:36:14;-6.00;40.90
10294;DHT22;5192;50.328;7.610;2022-12-18T10:38:40;-5.70;40.70
10294;DHT22;5192;50.328;7.610;2022-12-18T10:46:46;-5.00;37.50
10294;DHT22;5192;50.328;7.610;2022-12-18T10:49:21;-4.80;35.00
10294;DHT22;5192;50.328;7.610;2022-12-18T10:51:49;-4.70;34.60
10294;DHT22;5192;50.328;7.610;2022-12-18T10:54:21;-4.60;32.40
10294;DHT22;5192;50.328;7.610;2022-12-18T10:56:51;-4.50;34.50
10294;DHT22;5192;50.328;7.610;2022-12-18T10:59:55;-4.30;34.90
10294;DHT22;5192;50.328;7.610;2022-12-18T11:02:39;-4.20;31.30
10294;DHT22;5192;50.328;7.610;2022-12-18T11:05:27;-4.10;31.30
10294;DHT22;5192;50.328;7.610;2022-12-18T11:07:56;-4.10;30.60
10294;DHT22;5192;50.328;7.610;2022-12-18T11:10:34;-4.00;32.20
10294;DHT22;5192;50.328;7.610;2022-12-18T11:13:21;-3.90;31.00
10294;DHT22;5192;50.328;7.610;2022-12-18T11:15:50;-3.80;30.20
10294;DHT22;5192;50.328;7.610;2022-12-18T11:21:14;-3.60;28.50
10294;DHT22;5192;50.328;7.610;2022-12-18T11:23:52;-3.50;28.00
10294;DHT22;5192;50.328;7.610;2022-12-18T11:26:34;-3.30;28.60
10294;DHT22;5192;50.328;7.610;2022-12-18T11:29:12;-3.30;24.30
10294;DHT22;5192;50.328;7.610;2022-12-18T11:31:44;-3.30;22.30
10294;DHT22;5192;50.328;7.610;2022-12-18T11:34:29;-3.30;23.30
10294;DHT22;5192;50.328;7.610;2022-12-18T11:37:01;-3.30;22.20
10294;DHT22;5192;50.328;7.610;2022-12-18T11:39:55;-3.20;23.90
10294;DHT22;5192;50.328;7.610;2022-12-18T11:42:54;-3.20;22.60
10294;DHT22;5192;50.328;7.610;2022-12-18T11:45:34;-3.40;22.60
10294;DHT22;5192;50.328;7.610;2022-12-18T11:48:33;-3.20;23.90
10294;DHT22;5192;50.328;7.610;2022-12-18T11:51:04;-3.20;24.30
10294;DHT22;5192;50.328;7.610;2022-12-18T11:53:32;-3.20;22.30
10294;DHT22;5192;50.328;7.610;2022-12-18T11:59:02;-3.10;22.80
10294;DHT22;5192;50.328;7.610;2022-12-18T12:04:48;-2.90;21.90
10294;DHT22;5192;50.328;7.610;2022-12-18T12:07:37;-2.90;22.40
10294;DHT22;5192;50.328;7.610;2022-12-18T12:16:00;-2.80;20.40
10294;DHT22;5192;50.328;7.610;2022-12-18T12:21:28;-3.00;22.30
10294;DHT22;5192;50.328;7.610;2022-12-18T12:30:09;-3.40;22.50
10294;DHT22;5192;50.328;7.610;2022-12-18T12:35:41;-3.40;21.50
10294;DHT22;5192;50.328;7.610;2022-12-18T12:38:28;-3.30;21.60
10294;DHT22;5192;50.328;7.610;2022-12-18T12:41:05;-3.50;20.40
10294;DHT22;5192;50.328;7.610;2022-12-18T12:43:56;-3.40;20.80
10294;DHT22;5192;50.328;7.610;2022-12-18T12:46:24;-3.40;20.20
10294;DHT22;5192;50.328;7.610;2022-12-18T12:49:15;-3.40;20.90
10294;DHT22;5192;50.328;7.610;2022-12-18T12:52:07;-3.30;21.50
10294;DHT22;5192;50.328;7.610;2022-12-18T12:54:35;-3.40;20.70
10294;DHT22;5192;50.328;7.610;2022-12-18T12:57:15;-3.30;21.10
10294;DHT22;5192;50.328;7.610;2022-12-18T13:00:06;-3.20;19.20
10294;DHT22;5192;50.328;7.610;2022-12-18T13:03:11;-3.10;19.10
10294;DHT22;5192;50.328;7.610;2022-12-18T13:06:09;-3.30;16.70
10294;DHT22;5192;50.328;7.610;2022-12-18T13:08:58;-3.30;17.70
10294;DHT22;5192;50.328;7.610;2022-12-18T13:11:48;-3.40;16.80
10294;DHT22;5192;50.328;7.610;2022-12-18T13:14:38;-3.40;17.30
10294;DHT22;5192;50.328;7.610;2022-12-18T13:17:26;-3.60;18.70
10294;DHT22;5192;50.328;7.610;2022-12-18T13:20:15;-3.50;20.40
10294;DHT22;5192;50.328;7.610;2022-12-18T13:22:57;-3.40;20.90
10294;DHT22;5192;50.328;7.610;2022-12-18T13:25:38;-3.50;20.40
10294;DHT22;5192;50.328;7.610;2022-12-18T13:30:54;-3.60;19.60
10294;DHT22;5192;50.328;7.610;2022-12-18T13:39:22;-3.50;17.70
10294;DHT22;5192;50.328;7.610;2022-12-18T13:44:34;-3.70;16.90
10294;DHT22;5192;50.328;7.610;2022-12-18T13:47:30;-3.90;17.80
10294;DHT22;5192;50.328;7.610;2022-12-18T13:49:58;-3.80;18.00
10294;DHT22;5192;50.328;7.610;2022-12-18T13:52:33;-3.80;18.60
10294;DHT22;5192;50.328;7.610;2022-12-18T13:55:02;-3.70;19.50
10294;DHT22;5192;50.328;7.610;2022-12-18T13:57:49;-3.80;18.10
10294;DHT22;5192;50.328;7.610;2022-12-18T14:00:33;-3.80;18.30
10294;DHT22;5192;50.328;7.610;2022-12-18T14:02:59;-3.70;18.70
10294;DHT22;5192;50.328;7.610;2022-12-18T14:05:44;-3.90;17.50
10294;DHT22;5192;50.328;7.610;2022-12-18T14:08:15;-3.90;19.20
10294;DHT22;5192;50.328;7.610;2022-12-18T14:10:47;-3.90;19.20
10294;DHT22;5192;50.328;7.610;2022-12-18T14:13:37;-3.90;19.40
10294;DHT22;5192;50.328;7.610;2022-12-18T14:16:11;-4.00;19.10
10294;DHT22;5192;50.328;7.610;2022-12-18T14:18:57;-3.90;19.50
10294;DHT22;5192;50.328;7.610;2022-12-18T14:21:30;-4.00;19.50
10294;DHT22;5192;50.328;7.610;2022-12-18T14:24:21;-3.90;19.90
10294;DHT22;5192;50.328;7.610;2022-12-18T14:26:49;-3.90;20.70
10294;DHT22;5192;50.328;7.610;2022-12-18T14:29:30;-3.90;21.10
10294;DHT22;5192;50.328;7.610;2022-12-18T14:32:17;-4.00;20.30
10294;DHT22;5192;50.328;7.610;2022-12-18T14:34:47;-4.00;20.80
10294;DHT22;5192;50.328;7.610;2022-12-18T14:37:17;-4.10;20.30
10294;DHT22;5192;50.328;7.610;2022-12-18T14:40:12;-4.10;21.10
10294;DHT22;5192;50.328;7.610;2022-12-18T14:42:41;-4.10;21.20
10294;DHT22;5192;50.328;7.610;2022-12-18T14:45:42;-4.00;21.30
10294;DHT22;5192;50.328;7.610;2022-12-18T14:51:16;-4.10;20.50
10294;DHT22;5192;50.328;7.610;2022-12-18T14:53:48;-4.00;21.30
10294;DHT22;5192;50.328;7.610;2022-12-18T14:56:28;-4.20;20.80
10294;DHT22;5192;50.328;7.610;2022-12-18T14:58:58;-4.10;22.10
10294;DHT22;5192;50.328;7.610;2022-12-18T15:04:42;-4.20;21.80
10294;DHT22;5192;50.328;7.610;2022-12-18T15:15:44;-4.20;22.10
10294;DHT22;5192;50.328;7.610;2022-12-18T15:21:14;-4.30;22.40
10294;DHT22;5192;50.328;7.610;2022-12-18T15:26:38;-4.20;22.40
10294;DHT22;5192;50.328;7.610;2022-12-18T15:29:15;-4.30;21.90
10294;DHT22;5192;50.328;7.610;2022-12-18T15:32:01;-4.30;22.10
10294;DHT22;5192;50.328;7.610;2022-12-18T15:34:27;-4.30;22.70
10294;DHT22;5192;50.328;7.610;2022-12-18T15:36:55;-4.30;22.70
10294;DHT22;5192;50.328;7.610;2022-12-18T15:39:21;-4.30;22.90
10294;DHT22;5192;50.328;7.610;2022-12-18T15:41:47;-4.30;23.40
10294;DHT22;5192;50.328;7.610;2022-12-18T15:44:32;-4.30;23.90
10294;DHT22;5192;50.328;7.610;2022-12-18T15:47:00;-4.30;23.00
10294;DHT22;5192;50.328;7.610;2022-12-18T15:49:28;-4.30;23.60
10294;DHT22;5192;50.328;7.610;2022-12-18T15:51:56;-4.30;24.40
10294;DHT22;5192;50.328;7.610;2022-12-18T15:54:24;-4.30;23.70
10294;DHT22;5192;50.328;7.610;2022-12-18T15:57:10;-4.30;23.70
10294;DHT22;5192;50.328;7.610;2022-12-18T15:59:52;-4.40;23.70
10294;DHT22;5192;50.328;7.610;2022-12-18T16:02:20;-4.40;24.00
10294;DHT22;5192;50.328;7.610;2022-12-18T16:04:50;-4.40;23.60
10294;DHT22;5192;50.328;7.610;2022-12-18T16:07:18;-4.40;23.90
10294;DHT22;5192;50.328;7.610;2022-12-18T16:09:44;-4.40;24.60
10294;DHT22;5192;50.328;7.610;2022-12-18T16:12:20;-4.40;24.50
10294;DHT22;5192;50.328;7.610;2022-12-18T16:14:49;-4.40;24.40
10294;DHT22;5192;50.328;7.610;2022-12-18T16:17:16;-4.40;23.90
10294;DHT22;5192;50.328;7.610;2022-12-18T16:19:49;-4.50;23.60
10294;DHT22;5192;50.328;7.610;2022-12-18T16:22:22;-4.40;24.10
10294;DHT22;5192;50.328;7.610;2022-12-18T16:24:50;-4.40;24.30
10294;DHT22;5192;50.328;7.610;2022-12-18T16:27:18;-4.40;23.80
10294;DHT22;5192;50.328;7.610;2022-12-18T16:29:44;-4.50;24.30
10294;DHT22;5192;50.328;7.610;2022-12-18T16:32:19;-4.50;24.50
10294;DHT22;5192;50.328;7.610;2022-12-18T16:34:49;-4.50;24.20
10294;DHT22;5192;50.328;7.610;2022-12-18T16:37:17;-4.50;25.10
10294;DHT22;5192;50.328;7.610;2022-12-18T16:39:44;-4.60;24.30
10294;DHT22;5192;50.328;7.610;2022-12-18T16:42:17;-4.60;24.70
10294;DHT22;5192;50.328;7.610;2022-12-18T16:44:48;-4.60;25.00
10294;DHT22;5192;50.328;7.610;2022-12-18T16:47:26;-4.60;25.30
10294;DHT22;5192;50.328;7.610;2022-12-18T16:49:52;-4.50;25.80
10294;DHT22;5192;50.328;7.610;2022-12-18T16:52:19;-4.50;25.60
10294;DHT22;5192;50.328;7.610;2022-12-18T16:54:46;-4.50;25.90
10294;DHT22;5192;50.328;7.610;2022-12-18T16:57:15;-4.60;25.10
10294;DHT22;5192;50.328;7.610;2022-12-18T16:59:43;-4.60;25.10
10294;DHT22;5192;50.328;7.610;2022-12-18T17:02:37;-4.50;25.00
10294;DHT22;5192;50.328;7.610;2022-12-18T17:05:06;-4.50;24.80
10294;DHT22;5192;50.328;7.610;2022-12-18T17:07:33;-4.40;24.80
10294;DHT22;5192;50.328;7.610;2022-12-18T17:10:00;-4.40;24.90
10294;DHT22;5192;50.328;7.610;2022-12-18T17:12:26;-4.50;24.80
10294;DHT22;5192;50.328;7.610;2022-12-18T17:14:54;-4.40;25.50
10294;DHT22;5192;50.328;7.610;2022-12-18T17:17:20;-4.40;24.70
10294;DHT22;5192;50.328;7.610;2022-12-18T17:19:53;-4.40;25.70
10294;DHT22;5192;50.328;7.610;2022-12-18T17:22:24;-4.40;24.90
10294;DHT22;5192;50.328;7.610;2022-12-18T17:24:51;-4.40;25.20
10294;DHT22;5192;50.328;7.610;2022-12-18T17:27:19;-4.30;24.70
10294;DHT22;5192;50.328;7.610;2022-12-18T17:29:47;-4.30;25.30
10294;DHT22;5192;50.328;7.610;2022-12-18T17:32:13;-4.30;25.30
10294;DHT22;5192;50.328;7.610;2022-12-18T17:34:41;-4.30;24.90
10294;DHT22;5192;50.328;7.610;2022-12-18T17:37:09;-4.20;25.40
10294;DHT22;5192;50.328;7.610;2022-12-18T17:39:37;-4.20;25.70
10294;DHT22;5192;50.328;7.610;2022-12-18T17:42:04;-4.20;24.30
10294;DHT22;5192;50.328;7.610;2022-12-18T17:44:33;-4.20;24.30
10294;DHT22;5192;50.328;7.610;2022-12-18T17:46:59;-4.20;24.50
10294;DHT22;5192;50.328;7.610;2022-12-18T17:49:26;-4.20;24.50
10294;DHT22;5192;50.328;7.610;2022-12-18T17:51:53;-4.10;24.50
10294;DHT22;5192;50.328;7.610;2022-12-18T17:54:21;-4.10;24.40
10294;DHT22;5192;50.328;7.610;2022-12-18T17:56:49;-4.10;24.20
10294;DHT22;5192;50.328;7.610;2022-12-18T17:59:17;-4.10;24.70
10294;DHT22;5192;50.328;7.610;2022-12-18T18:01:43;-4.10;24.90
10294;DHT22;5192;50.328;7.610;2022-12-18T18:04:10;-4.00;25.20
10294;DHT22;5192;50.328;7.610;2022-12-18T18:06:40;-4.00;25.00
10294;DHT22;5192;50.328;7.610;2022-12-18T18:09:07;-3.90;24.90
10294;DHT22;5192;50.328;7.610;2022-12-18T18:11:34;-3.90;25.60